Time;durP1;ratioP1;P1;durP2;ratioP2;P2;SDS_P1;SDS_P2;PMS_P1;PMS_P2;Temp;Humidity;BMP_temperature;BMP_pressure;BME280_temperature;BME280_humidity;BME280_pressure;Samples;Min_cycle;Max_cycle;Signal;HPM_P1;HPM_P2
2022/03/17 00:00:08;;;;;;;26.58;15.02;;;10.50;99.90;;;;;;5077242;28;20048;-72
2022/03/17 00:02:35;;;;;;;23.55;14.95;;;10.50;99.90;;;;;;5094695;28;20047;-72
2022/03/17 00:05:02;;;;;;;20.50;13.90;;;10.40;99.90;;;;;;5095607;28;20054;-72
2022/03/17 00:07:30;;;;;;;24.55;14.07;;;10.40;99.90;;;;;;5077610;28;20302;-72
2022/03/17 00:09:59;;;;;;;21.00;13.88;;;10.40;99.90;;;;;;5076178;28;20052;-72
2022/03/17 00:12:26;;;;;;;23.90;15.30;;;10.40;99.90;;;;;;5095428;28;20051;-72
2022/03/17 00:14:53;;;;;;;23.67;15.20;;;10.40;99.90;;;;;;5073842;28;20048;-71
2022/03/17 00:17:20;;;;;;;23.63;14.82;;;10.40;99.90;;;;;;5074328;28;20048;-72
2022/03/17 00:19:47;;;;;;;23.77;14.75;;;10.40;99.90;;;;;;5075085;28;20056;-72
2022/03/17 00:22:16;;;;;;;22.75;15.63;;;10.40;99.90;;;;;;5074311;28;20151;-72
2022/03/17 00:24:43;;;;;;;23.98;15.00;;;10.40;99.90;;;;;;5074749;28;20091;-72
2022/03/17 00:27:12;;;;;;;21.92;14.75;;;10.40;99.90;;;;;;5056130;28;20290;-72
2022/03/17 00:29:40;;;;;;;22.73;15.57;;;10.30;99.90;;;;;;5073090;28;20048;-71
2022/03/17 00:32:08;;;;;;;23.30;15.45;;;10.40;99.90;;;;;;5095123;28;20052;-71
2022/03/17 00:35:35;;;;;;;21.70;15.45;;;10.30;99.90;;;;;;5095100;28;20040;-72
2022/03/17 00:37:24;;;;;;;23.00;15.40;;;10.30;99.90;;;;;;5093948;28;20059;-72
2022/03/17 00:39:51;;;;;;;22.75;15.27;;;10.30;99.90;;;;;;5094513;28;20502;-72
2022/03/17 00:42:20;;;;;;;24.13;15.63;;;10.30;99.90;;;;;;5076391;28;20052;-72
2022/03/17 00:44:48;;;;;;;25.23;15.68;;;10.30;99.90;;;;;;5076285;28;20055;-72
2022/03/17 00:47:15;;;;;;;20.58;13.88;;;10.30;99.90;;;;;;5094845;28;20059;-72
2022/03/17 00:49:42;;;;;;;23.48;15.40;;;10.30;99.90;;;;;;5076351;28;20052;-71
2022/03/17 00:52:11;;;;;;;26.30;15.07;;;10.30;99.90;;;;;;5093749;28;20052;-71
2022/03/17 00:54:38;;;;;;;24.65;15.23;;;10.30;99.90;;;;;;5094585;28;20044;-71
2022/03/17 00:57:05;;;;;;;24.13;15.45;;;10.20;99.90;;;;;;5076468;28;20052;-72
2022/03/17 00:59:33;;;;;;;24.80;15.43;;;10.30;99.90;;;;;;5093920;28;20048;-72
2022/03/17 01:02:00;;;;;;;23.70;15.48;;;10.30;99.90;;;;;;5094178;28;20131;-71
2022/03/17 01:04:27;;;;;;;24.92;16.10;;;10.20;99.90;;;;;;5093563;28;20557;-71
2022/03/17 01:06:54;;;;;;;24.15;14.98;;;10.20;99.90;;;;;;5076736;28;20101;-71
2022/03/17 01:09:21;;;;;;;29.60;15.82;;;10.20;99.90;;;;;;5093999;28;20557;-71
2022/03/17 01:11:48;;;;;;;23.58;14.80;;;10.20;99.90;;;;;;5075388;28;20476;-71
2022/03/17 01:14:15;;;;;;;24.45;15.68;;;10.20;99.90;;;;;;5076477;28;20055;-71
2022/03/17 01:16:43;;;;;;;24.17;15.50;;;10.20;99.90;;;;;;5094565;28;20059;-72
2022/03/17 01:19:10;;;;;;;24.65;15.38;;;10.20;99.90;;;;;;5075241;28;20047;-72
2022/03/17 01:21:37;;;;;;;20.67;14.40;;;10.20;99.90;;;;;;5075810;28;20074;-71
2022/03/17 01:24:05;;;;;;;23.77;14.98;;;10.20;99.90;;;;;;5075608;28;20048;-72
2022/03/17 01:26:31;;;;;;;22.80;14.90;;;10.30;99.90;;;;;;5093615;28;20048;-71
2022/03/17 01:28:58;;;;;;;23.83;16.05;;;10.30;99.90;;;;;;5093586;28;20055;-72
2022/03/17 01:31:25;;;;;;;26.38;17.00;;;10.30;99.90;;;;;;5093646;28;20051;-71
2022/03/17 01:33:53;;;;;;;25.35;16.20;;;10.30;99.90;;;;;;5093219;28;20047;-71
2022/03/17 01:36:20;;;;;;;21.92;14.38;;;10.30;99.90;;;;;;5075857;28;20407;-72
2022/03/17 01:38:47;;;;;;;25.20;15.93;;;10.30;99.90;;;;;;5075314;28;20565;-71
2022/03/17 01:41:14;;;;;;;27.00;16.35;;;10.30;99.90;;;;;;5071583;28;20044;-71
2022/03/17 01:43:41;;;;;;;24.13;16.65;;;10.30;99.90;;;;;;5055419;28;20048;-71
2022/03/17 01:46:09;;;;;;;25.70;16.02;;;10.30;99.90;;;;;;5072278;28;20052;-71
2022/03/17 01:48:36;;;;;;;24.48;15.40;;;10.30;99.90;;;;;;5072402;28;20056;-71
2022/03/17 01:51:05;;;;;;;24.90;15.48;;;10.30;99.90;;;;;;5072870;28;20499;-71
2022/03/17 01:53:32;;;;;;;22.77;15.15;;;10.30;99.90;;;;;;5073171;28;20048;-71
2022/03/17 01:56:00;;;;;;;22.73;16.05;;;10.30;99.90;;;;;;5063302;28;20044;-71
2022/03/17 01:58:27;;;;;;;26.85;16.33;;;10.30;99.90;;;;;;5093575;28;20048;-71
2022/03/17 02:00:54;;;;;;;23.52;16.20;;;10.30;99.90;;;;;;5074518;28;20553;-72
2022/03/17 02:03:21;;;;;;;21.38;15.25;;;10.40;99.90;;;;;;5093022;28;20090;-72
2022/03/17 02:05:50;;;;;;;28.20;16.98;;;10.40;99.90;;;;;;5075004;28;20048;-71
2022/03/17 02:08:18;;;;;;;26.15;15.40;;;10.40;99.90;;;;;;5092731;28;20079;-73
2022/03/17 02:13:29;;;;;;;24.45;17.27;;;10.40;99.90;;;;;;5074944;28;20109;-72
2022/03/17 02:15:56;;;;;;;23.65;15.57;;;10.40;99.90;;;;;;5092476;28;20048;-71
2022/03/17 02:18:24;;;;;;;22.33;15.35;;;10.40;99.90;;;;;;5093201;28;20117;-71
2022/03/17 02:20:51;;;;;;;22.75;15.85;;;10.40;99.90;;;;;;5093111;28;20055;-73
2022/03/17 02:26:05;;;;;;;25.40;16.30;;;10.50;99.90;;;;;;5071313;28;20194;-71
2022/03/17 02:28:34;;;;;;;25.73;16.08;;;10.40;99.90;;;;;;5072010;28;20045;-71
2022/03/17 02:31:02;;;;;;;24.80;16.45;;;10.40;99.90;;;;;;5072180;28;20056;-72
2022/03/17 02:33:29;;;;;;;26.38;15.88;;;10.30;99.90;;;;;;5071577;28;20055;-72
2022/03/17 02:35:57;;;;;;;24.27;16.88;;;10.30;99.90;;;;;;5072054;28;20049;-72
2022/03/17 02:38:26;;;;;;;26.92;16.33;;;10.40;99.90;;;;;;5072660;28;20110;-72
2022/03/17 02:40:53;;;;;;;29.30;16.92;;;10.30;99.90;;;;;;5072378;28;20053;-71
2022/03/17 02:43:21;;;;;;;25.73;17.23;;;10.40;99.90;;;;;;5070650;28;20482;-71
2022/03/17 02:45:48;;;;;;;30.02;16.80;;;10.30;99.90;;;;;;5072489;28;20053;-72
2022/03/17 02:48:16;;;;;;;25.67;16.63;;;10.40;99.90;;;;;;5071090;28;20558;-72
2022/03/17 02:50:43;;;;;;;25.40;15.48;;;10.40;99.90;;;;;;5071412;28;20044;-72
2022/03/17 02:53:11;;;;;;;24.67;16.50;;;10.40;99.90;;;;;;5072252;28;20052;-71
2022/03/17 02:55:42;;;;;;;26.05;16.42;;;10.40;99.90;;;;;;5072657;28;20052;-71
2022/03/17 02:58:10;;;;;;;26.58;17.52;;;10.40;99.90;;;;;;5071811;28;20048;-71
2022/03/17 03:00:38;;;;;;;26.88;17.27;;;10.40;99.90;;;;;;5071944;28;20078;-71
2022/03/17 03:03:06;;;;;;;26.45;17.10;;;10.40;99.90;;;;;;5072241;28;20045;-71
2022/03/17 03:05:33;;;;;;;25.98;16.77;;;10.40;99.90;;;;;;5071679;28;20052;-72
2022/03/17 03:08:02;;;;;;;26.13;16.98;;;10.40;99.90;;;;;;5071946;28;20049;-71
2022/03/17 03:10:29;;;;;;;28.02;17.50;;;10.50;99.90;;;;;;5072575;28;20048;-71
2022/03/17 03:12:57;;;;;;;24.17;17.27;;;10.40;99.90;;;;;;5071722;28;20056;-71
2022/03/17 03:15:24;;;;;;;26.52;16.92;;;10.50;99.90;;;;;;5071972;28;20484;-71
2022/03/17 03:17:51;;;;;;;27.33;17.42;;;10.40;99.90;;;;;;5070924;28;20059;-71
2022/03/17 03:20:18;;;;;;;24.20;16.10;;;10.40;99.90;;;;;;5066935;28;20052;-71
2022/03/17 03:22:45;;;;;;;26.35;16.70;;;10.40;99.90;;;;;;5050839;28;20056;-72
2022/03/17 03:25:11;;;;;;;25.33;16.00;;;10.50;99.90;;;;;;5049850;28;20064;-72
2022/03/17 03:27:40;;;;;;;25.52;17.55;;;10.50;99.90;;;;;;5050943;28;20386;-71
2022/03/17 03:30:11;;;;;;;23.50;16.38;;;10.50;99.90;;;;;;5052176;28;20077;-72
2022/03/17 03:32:39;;;;;;;29.90;16.25;;;10.50;99.90;;;;;;5050552;28;20088;-71
2022/03/17 03:37:22;;;;;;;26.77;18.02;;;10.50;99.90;;;;;;5062351;28;20041;-72
2022/03/17 03:38:02;;;;;;;26.77;17.40;;;10.50;99.90;;;;;;5071239;28;20059;-72
2022/03/17 03:40:29;;;;;;;25.02;17.63;;;10.50;99.90;;;;;;5071547;28;20492;-71
2022/03/17 03:42:55;;;;;;;24.20;17.23;;;10.50;99.90;;;;;;5070436;28;20055;-71
2022/03/17 03:45:24;;;;;;;25.60;17.70;;;10.50;99.90;;;;;;5071777;28;20052;-71
2022/03/17 03:47:51;;;;;;;26.33;17.17;;;10.60;99.90;;;;;;5069907;28;20098;-72
2022/03/17 03:50:17;;;;;;;24.42;17.88;;;10.60;99.90;;;;;;5072427;28;20110;-71
2022/03/17 03:52:44;;;;;;;27.33;19.05;;;10.60;99.90;;;;;;5070766;28;20122;-71
2022/03/17 03:55:11;;;;;;;24.42;17.25;;;10.60;99.90;;;;;;5070195;28;20044;-71
2022/03/17 03:57:38;;;;;;;28.35;18.15;;;10.60;99.90;;;;;;5070444;28;20056;-71
2022/03/17 04:00:19;;;;;;;28.15;18.63;;;10.60;99.90;;;;;;5070532;28;20054;-71
2022/03/17 04:02:48;;;;;;;26.70;19.17;;;10.60;99.90;;;;;;5074652;28;20044;-71
2022/03/17 04:05:17;;;;;;;28.70;18.92;;;10.50;99.90;;;;;;5075562;28;20048;-71
2022/03/17 04:07:44;;;;;;;28.65;18.40;;;10.40;99.90;;;;;;5075163;28;20131;-71
2022/03/17 04:10:11;;;;;;;29.45;18.52;;;10.30;99.90;;;;;;5074876;28;20079;-71
2022/03/17 04:12:38;;;;;;;29.45;19.35;;;10.20;99.90;;;;;;5075375;28;20439;-71
2022/03/17 04:15:06;;;;;;;30.65;19.98;;;10.10;99.90;;;;;;5075118;28;20144;-72
2022/03/17 04:17:33;;;;;;;33.85;22.83;;;10.00;99.90;;;;;;5075245;28;20098;-72
2022/03/17 04:20:01;;;;;;;35.38;21.73;;;9.90;99.90;;;;;;5075703;28;20496;-73
2022/03/17 04:22:28;;;;;;;33.22;22.70;;;9.80;99.90;;;;;;5074758;28;20053;-72
2022/03/17 04:24:55;;;;;;;35.90;22.55;;;9.70;99.90;;;;;;5074028;28;20057;-73
2022/03/17 04:27:22;;;;;;;32.28;22.55;;;9.60;99.90;;;;;;5075639;28;20109;-72
2022/03/17 04:29:48;;;;;;;38.38;24.73;;;9.50;99.90;;;;;;5073639;28;20454;-72
2022/03/17 04:32:15;;;;;;;32.95;23.88;;;9.40;99.90;;;;;;5075418;28;20056;-72
2022/03/17 04:34:42;;;;;;;40.17;26.25;;;9.40;99.90;;;;;;5074184;28;20127;-72
2022/03/17 04:37:10;;;;;;;39.85;25.15;;;9.30;99.90;;;;;;5073848;28;20048;-72
2022/03/17 04:39:37;;;;;;;41.38;26.40;;;9.20;99.90;;;;;;5075163;28;20052;-72
2022/03/17 04:42:05;;;;;;;40.72;26.23;;;9.20;99.90;;;;;;5070158;28;20040;-72
2022/03/17 04:44:32;;;;;;;42.42;26.80;;;9.20;99.90;;;;;;5054431;28;20098;-71
2022/03/17 04:46:59;;;;;;;43.85;26.70;;;9.20;99.90;;;;;;5054368;28;20404;-71
2022/03/17 04:49:26;;;;;;;41.72;27.77;;;9.10;99.90;;;;;;5054383;28;20055;-72
2022/03/17 04:51:53;;;;;;;43.08;26.92;;;9.10;99.90;;;;;;5054957;28;20115;-72
2022/03/17 04:54:21;;;;;;;47.90;29.52;;;9.10;99.90;;;;;;5053614;28;20045;-71
2022/03/17 04:56:48;;;;;;;51.85;30.67;;;9.10;99.90;;;;;;5058423;28;20052;-71
2022/03/17 04:59:15;;;;;;;54.13;30.00;;;9.00;99.90;;;;;;5075370;28;20053;-71
2022/03/17 05:01:41;;;;;;;54.50;32.00;;;9.00;99.90;;;;;;5074477;28;20484;-71
2022/03/17 05:04:08;;;;;;;55.53;34.40;;;9.00;99.90;;;;;;5073375;28;20508;-72
2022/03/17 05:06:35;;;;;;;53.42;33.90;;;9.00;99.90;;;;;;5073778;28;20048;-71
2022/03/17 05:09:04;;;;;;;58.35;36.08;;;9.00;99.90;;;;;;5074901;28;20577;-72
2022/03/17 05:11:33;;;;;;;46.13;29.27;;;9.00;99.90;;;;;;5072707;28;20052;-72
2022/03/17 05:14:00;;;;;;;29.33;18.90;;;9.00;99.90;;;;;;5074327;28;20041;-72
2022/03/17 05:16:26;;;;;;;19.42;12.45;;;8.90;99.90;;;;;;5075031;28;20052;-72
2022/03/17 05:18:53;;;;;;;17.73;12.52;;;8.80;99.90;;;;;;5072873;28;20053;-72
2022/03/17 05:21:20;;;;;;;21.08;12.52;;;8.70;99.90;;;;;;5073586;28;20389;-73
2022/03/17 05:23:47;;;;;;;19.02;11.48;;;8.70;99.90;;;;;;5073612;28;20055;-72
2022/03/17 05:26:14;;;;;;;17.10;10.07;;;8.60;99.90;;;;;;5076095;28;20048;-73
2022/03/17 05:28:43;;;;;;;12.98;8.48;;;8.50;99.90;;;;;;5076102;28;20130;-71
2022/03/17 05:31:09;;;;;;;12.93;8.10;;;8.50;99.90;;;;;;5076103;28;20068;-72
2022/03/17 05:33:36;;;;;;;11.40;8.05;;;8.40;99.90;;;;;;5093491;28;20044;-71
2022/03/17 05:36:05;;;;;;;12.48;8.40;;;8.30;99.90;;;;;;5081946;28;20044;-71
2022/03/17 05:38:32;;;;;;;10.50;7.80;;;8.20;99.90;;;;;;5084826;28;20499;-72
2022/03/17 05:41:00;;;;;;;10.35;7.78;;;8.10;99.90;;;;;;5067933;28;20044;-72
2022/03/17 05:43:26;;;;;;;11.23;7.35;;;8.10;99.90;;;;;;5088937;28;20039;-72
2022/03/17 05:45:55;;;;;;;12.50;8.07;;;8.00;99.90;;;;;;5066887;28;20047;-72
2022/03/17 05:48:22;;;;;;;14.60;8.75;;;8.00;99.90;;;;;;5086514;28;20048;-72
2022/03/17 05:50:48;;;;;;;17.10;11.05;;;7.90;99.90;;;;;;5071695;28;20114;-72
2022/03/17 05:53:15;;;;;;;19.58;10.93;;;7.90;99.90;;;;;;5065753;28;20049;-72
2022/03/17 05:55:42;;;;;;;19.08;11.90;;;7.80;99.90;;;;;;5068399;28;20070;-72
2022/03/17 05:58:09;;;;;;;19.50;11.68;;;7.80;99.90;;;;;;5071887;28;20052;-71
2022/03/17 06:00:36;;;;;;;22.65;12.32;;;7.80;99.90;;;;;;5065513;28;20476;-72
2022/03/17 06:03:05;;;;;;;16.85;9.65;;;7.80;99.90;;;;;;5085197;28;20048;-72
2022/03/17 06:05:32;;;;;;;22.05;12.68;;;7.70;99.90;;;;;;5067564;28;20119;-72
2022/03/17 06:08:00;;;;;;;20.90;11.50;;;7.70;99.90;;;;;;5084528;28;20040;-73
2022/03/17 06:10:29;;;;;;;17.92;8.45;;;7.80;99.90;;;;;;5086032;28;20045;-72
2022/03/17 06:12:57;;;;;;;14.27;8.30;;;7.70;99.90;;;;;;5084256;28;20044;-71
2022/03/17 06:15:25;;;;;;;16.10;7.53;;;7.70;99.90;;;;;;5070196;28;20082;-72
2022/03/17 06:17:54;;;;;;;15.18;6.45;;;7.70;99.90;;;;;;5065784;28;20488;-72
2022/03/17 06:20:26;;;;;;;15.95;7.63;;;7.60;99.90;;;;;;5065832;28;20048;-72
2022/03/17 06:22:54;;;;;;;17.02;6.32;;;7.60;99.90;;;;;;5067316;28;20113;-73
2022/03/17 06:25:25;;;;;;;13.48;6.07;;;7.60;99.90;;;;;;5082242;28;20059;-72
2022/03/17 06:27:52;;;;;;;12.30;5.68;;;7.60;99.90;;;;;;5065223;28;20510;-73
2022/03/17 06:30:20;;;;;;;14.65;6.35;;;7.60;99.90;;;;;;5068292;28;20085;-72
2022/03/17 06:32:47;;;;;;;14.32;5.80;;;7.60;99.90;;;;;;5067087;28;20077;-72
2022/03/17 06:35:17;;;;;;;13.43;5.13;;;7.60;99.90;;;;;;5087505;28;20044;-75
2022/03/17 06:37:47;;;;;;;11.95;5.88;;;7.60;99.90;;;;;;5084491;28;20601;-72
2022/03/17 06:40:14;;;;;;;10.52;5.68;;;7.60;99.90;;;;;;5065317;28;20487;-72
2022/03/17 06:42:41;;;;;;;14.52;5.85;;;7.60;99.90;;;;;;5064136;28;20056;-72
2022/03/17 06:45:09;;;;;;;15.48;5.85;;;7.60;99.90;;;;;;5085425;28;20545;-73
2022/03/17 06:47:36;;;;;;;11.55;4.72;;;7.60;99.90;;;;;;5087858;28;20048;-73
2022/03/17 06:50:04;;;;;;;10.43;3.92;;;7.60;99.90;;;;;;5055407;28;20116;-72
2022/03/17 06:52:31;;;;;;;7.28;3.13;;;7.50;99.90;;;;;;5077843;28;20056;-72
2022/03/17 06:54:59;;;;;;;8.73;3.30;;;7.50;99.90;;;;;;5076400;28;20044;-71
2022/03/17 06:57:26;;;;;;;8.80;2.80;;;7.50;99.90;;;;;;5061281;28;20572;-72
2022/03/17 06:59:53;;;;;;;10.15;2.67;;;7.60;99.90;;;;;;5071363;28;20537;-72
2022/03/17 07:02:20;;;;;;;11.10;2.83;;;7.50;99.90;;;;;;5089858;28;20056;-73
2022/03/17 07:04:47;;;;;;;8.45;2.88;;;7.50;99.90;;;;;;5073286;28;20048;-73
2022/03/17 07:07:14;;;;;;;10.75;3.33;;;7.40;99.90;;;;;;5073052;28;20051;-72
2022/03/17 07:09:42;;;;;;;6.90;2.58;;;7.50;99.90;;;;;;5073724;28;20105;-73
2022/03/17 07:12:11;;;;;;;15.18;3.45;;;7.50;99.90;;;;;;5070973;28;20091;-72
2022/03/17 07:14:38;;;;;;;8.07;2.67;;;7.50;99.90;;;;;;5072812;28;20087;-72
2022/03/17 07:17:06;;;;;;;8.73;2.40;;;7.50;99.90;;;;;;5091048;28;20048;-73
2022/03/17 07:19:33;;;;;;;13.55;2.92;;;7.50;99.90;;;;;;5090535;28;20052;-72
2022/03/17 07:22:00;;;;;;;7.95;2.00;;;7.60;99.90;;;;;;5090741;28;20113;-72
2022/03/17 07:24:26;;;;;;;8.25;2.30;;;7.50;99.90;;;;;;5069203;28;20057;-72
2022/03/17 07:26:53;;;;;;;7.32;2.90;;;7.50;99.90;;;;;;5069811;28;20100;-72
2022/03/17 07:29:22;;;;;;;13.02;2.55;;;7.50;99.90;;;;;;5071001;28;20048;-72
2022/03/17 07:31:49;;;;;;;9.15;2.85;;;7.50;99.90;;;;;;5070030;28;20098;-72
2022/03/17 07:34:16;;;;;;;8.50;2.55;;;7.50;99.90;;;;;;5070960;28;20048;-73
2022/03/17 07:36:44;;;;;;;8.88;2.30;;;7.50;99.90;;;;;;5072409;28;20492;-72
2022/03/17 07:39:11;;;;;;;12.00;3.10;;;7.50;99.90;;;;;;5073694;28;20056;-73
2022/03/17 07:41:38;;;;;;;8.20;1.83;;;7.40;99.90;;;;;;5074161;28;20049;-73
2022/03/17 07:44:05;;;;;;;17.80;3.08;;;7.50;99.90;;;;;;5075143;28;20110;-72
2022/03/17 07:46:33;;;;;;;6.93;2.60;;;7.50;99.90;;;;;;5073590;28;20094;-72
2022/03/17 07:49:00;;;;;;;10.95;2.72;;;7.50;99.90;;;;;;5074333;28;20117;-73
2022/03/17 07:51:27;;;;;;;10.48;3.15;;;7.50;99.90;;;;;;5074810;28;20446;-70
2022/03/17 07:53:54;;;;;;;11.40;2.63;;;7.50;99.90;;;;;;5072451;28;20053;-73
2022/03/17 07:56:21;;;;;;;10.38;2.80;;;7.50;99.90;;;;;;5073915;28;20115;-73
2022/03/17 07:58:48;;;;;;;6.35;2.35;;;7.50;99.90;;;;;;5074393;28;20048;-73
2022/03/17 08:01:16;;;;;;;12.18;3.05;;;7.50;99.90;;;;;;5072980;28;20091;-74
2022/03/17 08:03:44;;;;;;;9.85;2.92;;;7.60;99.90;;;;;;5073953;28;20520;-73
2022/03/17 08:06:12;;;;;;;11.82;2.90;;;7.60;99.90;;;;;;5072278;28;20048;-73
2022/03/17 08:08:39;;;;;;;12.57;3.00;;;7.60;99.90;;;;;;5072751;28;20441;-72
2022/03/17 08:11:06;;;;;;;13.05;2.58;;;7.70;99.90;;;;;;5072523;28;20479;-73
2022/03/17 08:13:33;;;;;;;11.23;2.65;;;7.60;99.90;;;;;;5073616;28;20049;-72
2022/03/17 08:16:01;;;;;;;9.40;3.13;;;7.60;99.90;;;;;;5073306;28;20049;-72
2022/03/17 08:18:29;;;;;;;12.77;2.83;;;7.60;99.90;;;;;;5074112;28;20051;-73
2022/03/17 08:20:57;;;;;;;13.43;2.80;;;7.00;99.90;;;;;;5072900;28;20048;-72
2022/03/17 08:23:24;;;;;;;18.00;3.75;;;7.70;99.90;;;;;;5072757;28;20106;-71
2022/03/17 08:25:51;;;;;;;7.95;2.88;;;7.70;99.90;;;;;;5071976;28;20454;-71
2022/03/17 08:28:18;;;;;;;15.00;3.40;;;7.70;99.90;;;;;;5072178;28;20044;-71
2022/03/17 08:30:49;;;;;;;13.07;3.85;;;7.70;99.90;;;;;;5073397;28;20516;-71
2022/03/17 08:33:16;;;;;;;;;;;7.80;99.90;;;;;;5073198;28;20515;-72
2022/03/17 08:35:43;;;;;;;13.57;2.75;;;7.80;99.90;;;;;;5072705;28;19924;-71
2022/03/17 08:38:12;;;;;;;13.63;3.30;;;7.80;99.90;;;;;;5052252;28;20137;-73
2022/03/17 08:40:40;;;;;;;19.35;2.92;;;7.90;99.90;;;;;;5073565;28;20049;-71
2022/03/17 08:43:08;;;;;;;8.80;2.22;;;7.90;99.90;;;;;;5073257;28;20102;-73
2022/03/17 08:51:04;;;;;;;9.57;2.08;;;7.90;99.90;;;;;;5074152;28;20134;-72
2022/03/17 08:53:32;;;;;;;11.60;2.67;;;7.80;99.90;;;;;;5070855;28;20056;-72
2022/03/17 08:56:01;;;;;;;12.10;2.58;;;7.80;99.90;;;;;;5071160;28;20109;-71
2022/03/17 08:58:28;;;;;;;10.05;2.15;;;7.80;99.90;;;;;;5071508;28;20056;-72
2022/03/17 09:00:55;;;;;;;7.45;1.95;;;7.70;99.90;;;;;;5072672;28;20664;-72
2022/03/17 09:03:24;;;;;;;11.95;2.90;;;7.70;99.90;;;;;;5072570;28;20558;-72
2022/03/17 09:05:51;;;;;;;11.23;2.88;;;7.80;99.90;;;;;;5072605;28;20078;-72
2022/03/17 09:08:18;;;;;;;8.73;2.60;;;7.80;99.90;;;;;;5073130;28;20401;-71
2022/03/17 09:10:48;;;;;;;15.88;3.67;;;7.90;99.90;;;;;;5072385;28;20045;-71
2022/03/17 09:13:15;;;;;;;;;;;8.00;99.90;;;;;;5072398;28;20496;-72
2022/03/17 09:15:43;;;;;;;15.02;3.05;;;8.20;99.90;;;;;;5072521;28;20322;-70
2022/03/17 09:18:11;;;;;;;13.05;3.58;;;8.20;99.90;;;;;;5072173;28;20052;-72
2022/03/17 09:20:40;;;;;;;5.03;1.70;;;8.20;99.90;;;;;;5072438;28;20044;-72
2022/03/17 09:23:07;;;;;;;8.65;2.10;;;8.20;99.90;;;;;;5072661;28;20135;-72
2022/03/17 09:25:35;;;;;;;11.73;2.72;;;8.10;99.90;;;;;;5087480;28;20052;-71
2022/03/17 09:28:04;;;;;;;12.18;3.50;;;8.10;99.90;;;;;;5093296;28;20464;-72
2022/03/17 09:30:32;;;;;;;5.78;2.47;;;8.10;99.90;;;;;;5092579;28;20399;-73
2022/03/17 09:33:01;;;;;;;9.93;2.40;;;8.30;99.90;;;;;;5074555;28;20051;-71
2022/03/17 09:35:28;;;;;;;17.30;2.88;;;8.50;99.90;;;;;;5092654;28;20044;-72
2022/03/17 09:37:55;;;;;;;11.73;2.63;;;8.60;99.90;;;;;;5092110;28;20051;-72
2022/03/17 09:40:22;;;;;;;7.32;2.60;;;8.70;99.90;;;;;;5074592;28;20056;-72
2022/03/17 09:42:49;;;;;;;9.52;2.72;;;8.90;99.90;;;;;;5074006;28;20105;-72
2022/03/17 09:45:17;;;;;;;13.10;2.80;;;8.80;99.90;;;;;;5073787;28;20109;-72
2022/03/17 09:47:45;;;;;;;11.10;2.58;;;9.00;99.90;;;;;;5092562;28;20071;-72
2022/03/17 09:50:16;;;;;;;10.75;3.05;;;9.20;99.90;;;;;;5074151;28;20059;-72
2022/03/17 09:52:47;;;;;;;10.27;2.78;;;9.30;99.90;;;;;;5073310;28;20095;-71
2022/03/17 09:55:14;;;;;;;7.78;2.65;;;9.50;99.90;;;;;;5074243;28;20044;-73
2022/03/17 09:57:41;;;;;;;9.30;2.90;;;9.70;99.90;;;;;;5091713;28;20048;-71
2022/03/17 10:00:12;;;;;;;14.88;2.40;;;9.70;99.90;;;;;;5090953;28;20052;-71
2022/03/17 10:02:40;;;;;;;5.30;2.10;;;9.80;99.90;;;;;;5091251;28;20044;-71
2022/03/17 10:05:11;;;;;;;10.57;2.45;;;9.80;99.90;;;;;;5074384;28;20047;-71
2022/03/17 10:07:39;;;;;;;;;;;10.10;99.90;;;;;;5073673;28;20052;-72
2022/03/17 10:10:07;;;;;;;12.95;2.90;;;9.90;99.90;;;;;;5090520;28;19924;-71
2022/03/17 10:12:34;;;;;;;10.40;2.40;;;10.60;99.90;;;;;;5073612;28;20048;-72
2022/03/17 10:15:01;;;;;;;8.90;2.88;;;11.10;99.90;;;;;;5091440;28;20105;-72
2022/03/17 10:17:31;;;;;;;13.10;2.85;;;11.50;99.90;;;;;;5091879;28;20148;-71
2022/03/17 10:20:13;;;;;;;6.57;1.90;;;11.80;99.90;;;;;;5092154;28;20123;-71
2022/03/17 10:22:43;;;;;;;10.00;2.97;;;12.60;99.90;;;;;;5088137;28;20048;-71
2022/03/17 10:25:12;;;;;;;7.72;2.75;;;13.40;99.90;;;;;;5091107;28;20055;-72
2022/03/17 10:27:40;;;;;;;8.18;2.20;;;13.30;99.90;;;;;;5072968;28;20143;-72
2022/03/17 10:30:09;;;;;;;5.18;2.08;;;13.50;99.90;;;;;;5073657;28;20068;-72
2022/03/17 10:32:37;;;;;;;10.77;2.90;;;14.30;99.90;;;;;;5091963;28;20044;-72
2022/03/17 10:35:08;;;;;;;15.32;3.35;;;14.40;99.90;;;;;;5073111;28;20138;-72
2022/03/17 10:37:37;;;;;;;10.45;2.63;;;15.30;99.40;;;;;;5073453;28;20044;-71
2022/03/17 10:40:11;;;;;;;10.82;3.35;;;16.10;97.10;;;;;;5091651;28;20052;-72
2022/03/17 10:42:39;;;;;;;11.98;3.05;;;15.60;95.10;;;;;;5072976;28;20056;-72
2022/03/17 10:45:08;;;;;;;6.80;2.15;;;15.20;99.70;;;;;;5091770;28;20471;-72
2022/03/17 10:47:36;;;;;;;10.57;2.65;;;15.30;99.90;;;;;;5091229;28;20098;-72
2022/03/17 10:50:13;;;;;;;8.00;2.80;;;15.50;99.90;;;;;;5073257;28;20093;-71
2022/03/17 10:52:45;;;;;;;10.63;2.55;;;15.10;93.80;;;;;;5090926;28;20044;-71
2022/03/17 10:55:12;;;;;;;8.95;2.55;;;15.80;96.60;;;;;;5072741;28;20048;-72
2022/03/17 10:57:40;;;;;;;11.85;2.92;;;15.80;94.60;;;;;;5073783;28;20098;-72
2022/03/17 11:00:12;;;;;;;15.23;2.50;;;16.00;95.80;;;;;;5073023;28;20059;-72
2022/03/17 11:02:40;;;;;;;9.57;2.55;;;16.80;94.00;;;;;;5090419;28;20565;-72
2022/03/17 11:05:10;;;;;;;9.55;2.80;;;17.50;92.30;;;;;;5060664;28;20048;-73
2022/03/17 11:07:39;;;;;;;10.73;2.60;;;17.50;85.80;;;;;;5074697;28;20044;-72
2022/03/17 11:10:07;;;;;;;10.15;2.45;;;17.00;88.30;;;;;;5074817;28;20062;-73
2022/03/17 11:12:34;;;;;;;8.95;2.80;;;17.00;87.50;;;;;;5066000;28;20131;-74
2022/03/17 11:15:02;;;;;;;6.90;2.53;;;16.80;88.00;;;;;;5090882;28;20055;-73
2022/03/17 11:17:36;;;;;;;8.77;2.65;;;17.60;85.80;;;;;;5067700;28;20052;-73
2022/03/17 11:20:05;;;;;;;11.68;2.72;;;18.30;83.00;;;;;;5081394;28;20094;-74
2022/03/17 11:22:33;;;;;;;7.65;2.47;;;17.70;81.80;;;;;;5072663;28;20052;-73
2022/03/17 11:25:23;;;;;;;9.27;2.80;;;16.60;81.10;;;;;;5092665;28;20062;-74
2022/03/17 11:27:57;;;;;;;8.70;2.37;;;16.70;82.60;;;;;;5078868;28;20104;-73
2022/03/17 11:30:30;;;;;;;8.45;2.25;;;16.90;86.90;;;;;;5091545;28;20361;-72
2022/03/17 11:32:59;;;;;;;10.32;2.83;;;17.30;77.60;;;;;;5072771;28;20087;-72
2022/03/17 11:35:29;;;;;;;8.35;2.10;;;17.60;79.10;;;;;;5089160;28;20055;-72
2022/03/17 11:38:14;;;;;;;10.75;3.10;;;17.80;77.60;;;;;;5085867;28;20400;-71
2022/03/17 11:41:05;;;;;;;5.95;1.83;;;18.80;74.70;;;;;;5074852;28;20112;-73
2022/03/17 11:43:40;;;;;;;8.38;2.55;;;19.80;71.50;;;;;;5093312;28;20052;-73
2022/03/17 11:46:11;;;;;;;7.70;2.60;;;20.60;71.50;;;;;;5075738;28;20526;-73
2022/03/17 11:48:38;;;;;;;5.80;2.13;;;20.00;70.10;;;;;;5076655;28;20051;-73
2022/03/17 11:51:07;;;;;;;5.25;2.28;;;19.60;68.40;;;;;;5095154;28;20043;-73
2022/03/17 11:53:47;;;;;;;7.75;2.30;;;19.90;67.20;;;;;;5094247;28;20048;-73
2022/03/17 11:56:32;;;;;;;6.40;2.27;;;20.00;66.80;;;;;;5092885;28;20080;-73
2022/03/17 11:58:59;;;;;;;6.47;2.05;;;20.30;65.70;;;;;;5094293;28;20290;-73
2022/03/17 12:01:29;;;;;;;6.13;1.80;;;21.20;64.30;;;;;;5074958;28;20070;-73
2022/03/17 12:03:58;;;;;;;7.53;2.22;;;20.90;66.10;;;;;;5077133;28;20101;-74
2022/03/17 12:06:26;;;;;;;6.15;2.22;;;21.10;65.40;;;;;;5070243;28;20131;-73
2022/03/17 12:08:58;;;;;;;8.35;2.38;;;20.80;62.60;;;;;;5069227;28;20055;-74
2022/03/17 12:11:28;;;;;;;7.95;2.00;;;19.50;64.70;;;;;;5093302;28;20097;-73
2022/03/17 12:14:19;;;;;;;;;;;19.40;65.30;;;;;;5093890;28;20081;-74
2022/03/17 12:16:49;;;;;;;10.98;2.70;;;20.20;65.00;;;;;;5074423;28;19928;-73
2022/03/17 12:19:29;;;;;;;8.75;2.45;;;20.50;65.10;;;;;;5094025;28;20568;-73
2022/03/17 12:22:14;;;;;;;7.65;2.17;;;20.80;62.00;;;;;;5092417;28;20277;-74
2022/03/17 12:24:46;;;;;;;10.63;2.50;;;20.90;62.90;;;;;;5093732;28;20113;-73
2022/03/17 12:27:18;;;;;;;7.97;2.13;;;20.50;63.90;;;;;;5093402;28;20165;-74
2022/03/17 12:29:46;;;;;;;6.28;1.80;;;20.40;62.70;;;;;;5073367;28;20467;-74
2022/03/17 12:32:15;;;;;;;11.57;2.42;;;20.30;63.20;;;;;;5070758;28;20059;-73
2022/03/17 12:34:45;;;;;;;6.97;2.22;;;20.70;64.10;;;;;;5075434;28;20058;-74
2022/03/17 12:37:12;;;;;;;8.38;2.50;;;21.00;63.70;;;;;;5094617;28;20173;-73
2022/03/17 12:39:40;;;;;;;6.35;2.30;;;20.40;63.40;;;;;;5054717;28;20048;-74
2022/03/17 12:42:18;;;;;;;9.73;2.42;;;20.40;63.20;;;;;;5093435;28;20097;-73
2022/03/17 12:44:53;;;;;;;5.30;1.90;;;20.90;61.30;;;;;;5093540;28;20052;-74
2022/03/17 12:47:23;;;;;;;10.63;3.13;;;21.00;60.90;;;;;;5075401;28;20453;-74
2022/03/17 12:49:50;;;;;;;6.88;2.03;;;21.40;60.70;;;;;;5093364;28;20510;-74
2022/03/17 12:52:21;;;;;;;8.05;2.40;;;21.20;60.20;;;;;;5093216;28;20051;-72
2022/03/17 12:54:52;;;;;;;7.90;2.40;;;20.40;61.20;;;;;;5093761;28;20134;-74
2022/03/17 12:57:21;;;;;;;8.90;2.17;;;19.70;61.90;;;;;;5092999;28;20086;-73